fecha-hora | temperatura | viento dirección-velocidad-rachas | humedad | presión

  • 11-04-2019 21:00:00 | 6.40°C | Noroeste-11.00 km/h - 30.00 km/h | 51.00% | 0.00 hPa
  • 11-04-2019 20:00:00 | 8.10°C | Noroeste-12.00 km/h - 33.00 km/h | 44.00% | 0.00 hPa
  • 11-04-2019 19:00:00 | 8.70°C | Nordeste-11.00 km/h - 44.00 km/h | 42.00% | 0.00 hPa
  • 11-04-2019 18:00:00 | 8.60°C | Norte-31.00 km/h - 53.00 km/h | 42.00% | 0.00 hPa
  • 11-04-2019 17:00:00 | 10.30°C | Norte-22.00 km/h - 48.00 km/h | 36.00% | 0.00 hPa
  • 11-04-2019 16:00:00 | 10.90°C | Norte-23.00 km/h - 48.00 km/h | 33.00% | 0.00 hPa
  • 11-04-2019 15:00:00 | 10.70°C | Nordeste-32.00 km/h - 53.00 km/h | 33.00% | 0.00 hPa
  • 11-04-2019 14:00:00 | 11.10°C | Nordeste-22.00 km/h - 42.00 km/h | 34.00% | 0.00 hPa
  • 11-04-2019 13:00:00 | 11.10°C | Norte-13.00 km/h - 39.00 km/h | 34.00% | 0.00 hPa
  • 11-04-2019 12:00:00 | 10.90°C | Noroeste-14.00 km/h - 38.00 km/h | 34.00% | 0.00 hPa
  • 11-04-2019 11:00:00 | 9.40°C | Nordeste-23.00 km/h - 51.00 km/h | 34.00% | 0.00 hPa
  • 11-04-2019 10:00:00 | 7.40°C | Norte-5.00 km/h - 24.00 km/h | 47.00% | 0.00 hPa
  • 11-04-2019 09:00:00 | 3.80°C | Oeste-11.00 km/h - 21.00 km/h | 64.00% | 0.00 hPa
  • 11-04-2019 08:00:00 | 2.20°C | Oeste-9.00 km/h - 19.00 km/h | 66.00% | 0.00 hPa
  • 11-04-2019 07:00:00 | 1.90°C | Oeste-6.00 km/h - 20.00 km/h | 70.00% | 0.00 hPa
  • 11-04-2019 06:00:00 | 2.50°C | Oeste-12.00 km/h - 27.00 km/h | 65.00% | 0.00 hPa
  • 11-04-2019 05:00:00 | 4.10°C | Oeste-9.00 km/h - 24.00 km/h | 51.00% | 0.00 hPa
  • 11-04-2019 04:00:00 | 4.70°C | Noroeste-3.00 km/h - 26.00 km/h | 49.00% | 0.00 hPa
  • 11-04-2019 03:00:00 | 5.70°C | Norte-7.00 km/h - 25.00 km/h | 43.00% | 0.00 hPa
  • 11-04-2019 02:00:00 | 5.40°C | Oeste-5.00 km/h - 46.00 km/h | 48.00% | 0.00 hPa
  • 11-04-2019 01:00:00 | 6.20°C | Norte-18.00 km/h - 36.00 km/h | 45.00% | 0.00 hPa
  • 11-04-2019 00:00:00 | 5.20°C | Oeste-4.00 km/h - 25.00 km/h | 58.00% | 0.00 hPa
  • 10-04-2019 23:00:00 | 4.40°C | Oeste-7.00 km/h - 18.00 km/h | 64.00% | 0.00 hPa
  • 10-04-2019 22:00:00 | 5.80°C | Oeste-6.00 km/h - 22.00 km/h | 53.00% | 0.00 hPa
    • diseño web asturias Información sobre el estado de las mareas, altura de la marejada, temperatura del agua y otros datos de Gijón en Asturias.

      Surf Gijón